ADDS - METARS form results

Aviation Digital Data Service (ADDS)

Output produced by METARs form (1731 UTC 25 September 2023)
found at http://aviationweather.gov/metar/data/
 
METAR text: KPNT 251715Z AUTO 11007KT 10SM OVC039 23/15 A3008 RMK AO2 LTG DSNT SE T02320152
Conditions at: KPNT (PONTIAC , IL, US) observed 1715 UTC 25 September 2023
Temperature: 23.2°C (74°F)
Dewpoint: 15.2°C (59°F) [RH = 61%]
Pressure (altimeter): 30.08 inches Hg (1018.7 mb)
Winds: from the ESE (110 degrees) at 8 MPH (7 knots; 3.6 m/s)
Visibility: 10 or more miles (16+ km)
Ceiling: 3900 feet AGL
Clouds: overcast cloud deck at 3900 feet AGL
Weather: automated observation with no human augmentation;
there may or may not be significant weather present at this time

METAR text: KPNT 251655Z AUTO 11006KT 10SM SCT037 BKN050 OVC120 23/16 A3008 RMK AO2 T02300159
Conditions at: KPNT (PONTIAC , IL, US) observed 1655 UTC 25 September 2023
Temperature: 23.0°C (73°F)
Dewpoint: 15.9°C (61°F) [RH = 64%]
Pressure (altimeter): 30.08 inches Hg (1018.7 mb)
Winds: from the ESE (110 degrees) at 7 MPH (6 knots; 3.1 m/s)
Visibility: 10 or more miles (16+ km)
Ceiling: 5000 feet AGL
Clouds: scattered clouds at 3700 feet AGL
broken clouds at 5000 feet AGL
overcast cloud deck at 12000 feet AGL
Weather: automated observation with no human augmentation;
there may or may not be significant weather present at this time

METAR text: KPNT 251635Z AUTO 11007KT 7SM RA SCT040 SCT050 BKN065 23/16 A3007 RMK AO2 T02280160
Conditions at: KPNT (PONTIAC , IL, US) observed 1635 UTC 25 September 2023
Temperature: 22.8°C (73°F)
Dewpoint: 16.0°C (61°F) [RH = 66%]
Pressure (altimeter): 30.07 inches Hg (1018.4 mb)
Winds: from the ESE (110 degrees) at 8 MPH (7 knots; 3.6 m/s)
Visibility: 7 miles (11 km)
Ceiling: 6500 feet AGL
Clouds: scattered clouds at 4000 feet AGL
scattered clouds at 5000 feet AGL
broken clouds at 6500 feet AGL
Weather: RA  (moderate rain)